Island Breeze — WDA3596 — position and weather

sailwx.info

Track history (hours):
 
Tides and Currents Weather Stations Pressure Air Temp Water Temp Dewpoint Dewpoint Depression Visibility Wind Speed Wind Dir Waves Ship Positions

Island Breeze

Owner: Island Tug & Barge Co., Seattle, WA. More information available from US FCC via Universal Licensing System and Coast Guard Vessel Documentation Center.

Last reported at 2014-Oct-30 16:18 UTC. Time now 2014-Oct-30 16:51 UTC.
Position N 47°08' W 122°39'.

Length 18 m.

Type: Tug. MMSI: 366800090.

Date/timePositionNaut miles runAvg speedWind from/ knotsBaromVisibWave heightAir tempDewpointWater temp
2014-Oct-30 16:18N 47°08' W 122°39'0 0.1
2014-Oct-30 15:33N 47°08' W 122°39'0 0.0
2014-Oct-30 14:32N 47°08' W 122°39'1 0.6
2014-Oct-30 13:33N 47°09' W 122°38'2 1.5
2014-Oct-30 12:33N 47°10' W 122°38'8 7.7
2014-Oct-30 11:33N 47°17' W 122°33'6 6.4
2014-Oct-30 10:33N 47°23' W 122°32'4 6.7
2014-Oct-30 10:02N 47°27' W 122°31'3 6.6
2014-Oct-30 09:33N 47°30' W 122°30'1 6.7
2014-Oct-30 09:22N 47°31' W 122°29'6 7.2
2014-Oct-30 08:33N 47°36' W 122°28'0 7.0
2014-Oct-30 08:32N 47°37' W 122°28'4 4.4
2014-Oct-30 07:33N 47°40' W 122°24'0 0.3
2014-Oct-30 07:32N 47°40' W 122°24'3 2.7
2014-Oct-30 06:33N 47°39' W 122°20'0 2.4
2014-Oct-30 06:32N 47°39' W 122°20'2 3.1
2014-Oct-30 05:57N 47°39' W 122°18'3 6.8
2014-Oct-30 05:33N 47°40' W 122°15'5 5.0
2014-Oct-30 04:33N 47°45' W 122°15'1 0.7
2014-Oct-30 03:33N 47°45' W 122°16'0 0.1
2014-Oct-30 03:26N 47°45' W 122°16'1 1.5
2014-Oct-30 02:33N 47°44' W 122°16'1 6.6
2014-Oct-30 02:22N 47°42' W 122°16'4 4.8
2014-Oct-30 01:33N 47°39' W 122°18'1 4.2
2014-Oct-30 01:26N 47°39' W 122°19'2 2.3
2014-Oct-30 00:33N 47°39' W 122°22'0 3.0
2014-Oct-30 00:32N 47°39' W 122°22'1 1.3
2014-Oct-29 23:33N 47°40' W 122°24'0 1.2
2014-Oct-29 23:31N 47°40' W 122°24'2 1.6
2014-Oct-29 22:33N 47°40' W 122°26'0 1.7
2014-Oct-29 22:31N 47°40' W 122°26'4 4.6
2014-Oct-29 21:33N 47°36' W 122°26'0 6.1
2014-Oct-29 21:31N 47°36' W 122°26'6 5.7
2014-Oct-29 20:33N 47°31' W 122°29'1 7.4
2014-Oct-29 20:26N 47°30' W 122°30'6 7.1
2014-Oct-29 19:33N 47°24' W 122°32'7 7.1
2014-Oct-29 18:33N 47°17' W 122°33'7 7.2
2014-Oct-29 17:33N 47°10' W 122°38'2 2.4
2014-Oct-29 16:33N 47°08' W 122°39'0 0.0
2014-Oct-29 15:33N 47°08' W 122°39'1 0.6
2014-Oct-29 13:21N 47°09' W 122°39'4 5.7
2014-Oct-29 12:33N 47°13' W 122°35'9 8.5
2014-Oct-29 11:33N 47°22' W 122°33'7 6.7
2014-Oct-29 10:33N 47°28' W 122°31'7 6.8
2014-Oct-29 09:33N 47°35' W 122°28'2 6.9
2014-Oct-29 09:19N 47°36' W 122°28'5 6.5
2014-Oct-29 08:33N 47°41' W 122°28'1 6.3
2014-Oct-29 08:28N 47°41' W 122°27'3 2.9
2014-Oct-29 07:33N 47°40' W 122°24'0 1.2
2014-Oct-29 07:29N 47°40' W 122°24'3 3.2
2014-Oct-29 06:27N 47°39' W 122°19'0 5.1
2014-Oct-29 06:23N 47°39' W 122°18'1 7.8
2014-Oct-29 06:14N 47°39' W 122°17'4 6.2
2014-Oct-29 05:33N 47°43' W 122°16'2 2.5
2014-Oct-29 04:33N 47°45' W 122°15'1 0.8
2014-Oct-29 03:33N 47°45' W 122°16'2 1.8
2014-Oct-29 02:33N 47°43' W 122°16'0 1.4
2014-Oct-29 02:33N 47°43' W 122°16'5 4.6
2014-Oct-29 01:33N 47°39' W 122°18'1 4.2
2014-Oct-29 01:23N 47°39' W 122°19'2 2.6
2014-Oct-29 00:33N 47°40' W 122°23'0 3.1
2014-Oct-29 00:28N 47°40' W 122°23'1 0.5
2014-Oct-28 23:17N 47°40' W 122°24'0 0.0
2014-Oct-28 23:16N 47°40' W 122°24'1 1.5
2014-Oct-28 22:33N 47°41' W 122°25'2 3.9
2014-Oct-28 21:59N 47°40' W 122°28'2 5.3
2014-Oct-28 21:33N 47°38' W 122°29'0 5.1
2014-Oct-28 21:29N 47°38' W 122°28'5 5.5
2014-Oct-28 20:33N 47°32' W 122°28'0 5.4
2014-Oct-28 20:28N 47°32' W 122°29'6 6.9
2014-Oct-28 19:33N 47°26' W 122°31'1 6.4
2014-Oct-28 19:28N 47°25' W 122°32'6 6.8
2014-Oct-28 18:33N 47°19' W 122°33'7 7.4
2014-Oct-28 17:33N 47°12' W 122°36'5 3.7
2014-Oct-28 16:21N 47°08' W 122°39'0 0.1
2014-Oct-28 15:33N 47°08' W 122°39'0 0.0
2014-Oct-28 14:07N 47°08' W 122°39'1 0.9
2014-Oct-28 13:32N 47°09' W 122°38'0 0.0
2014-Oct-28 12:33N 47°09' W 122°38'3 2.6
2014-Oct-28 11:30N 47°11' W 122°37'8 8.7
2014-Oct-28 10:33N 47°19' W 122°34'7 6.6
2014-Oct-28 09:33N 47°26' W 122°32'1 6.5
2014-Oct-28 09:23N 47°27' W 122°31'5 6.3
2014-Oct-28 08:33N 47°32' W 122°29'2 6.7
2014-Oct-28 08:18N 47°33' W 122°28'6 7.4
2014-Oct-28 07:33N 47°39' W 122°28'0 6.5
2014-Oct-28 07:29N 47°39' W 122°28'3 3.3
2014-Oct-28 06:33N 47°40' W 122°24'0 2.1
2014-Oct-28 06:28N 47°40' W 122°23'0 4.8
2014-Oct-28 06:23N 47°40' W 122°23'4 4.9
2014-Oct-28 05:33N 47°39' W 122°17'6 6.3
2014-Oct-28 04:33N 47°45' W 122°16'0 0.0
2014-Oct-28 03:32N 47°45' W 122°16'3 3.0
2014-Oct-28 02:33N 47°42' W 122°15'0 0.0
2014-Oct-28 02:33N 47°42' W 122°15'4 4.1
2014-Oct-28 01:33N 47°39' W 122°19'0 0.0
2014-Oct-28 01:33N 47°39' W 122°19'3 3.0
2014-Oct-28 00:33N 47°40' W 122°24'0 0.0
2014-Oct-28 00:33N 47°40' W 122°24'3 2.5
2014-Oct-27 23:33N 47°39' W 122°27'0 2.3
2014-Oct-27 23:33N 47°39' W 122°27'6 6.7
2014-Oct-27 22:36N 47°32' W 122°28'0 7.8
2014-Oct-27 22:33N 47°32' W 122°28'8 7.5
2014-Oct-27 21:33N 47°25' W 122°32'1 6.8
2014-Oct-27 21:26N 47°24' W 122°32'7 8.1
2014-Oct-27 20:33N 47°17' W 122°33'9 8.0
2014-Oct-27 19:30N 47°09' W 122°39'1 1.3
2014-Oct-27 18:27N 47°08' W 122°39'0 0.0
2014-Oct-27 17:31N 47°08' W 122°39'0 0.0
2014-Oct-27 16:32N 47°08' W 122°39'1 0.5
2014-Oct-27 15:32N 47°09' W 122°38'4 3.9
2014-Oct-27 14:25N 47°13' W 122°36'8 9.7
2014-Oct-27 13:33N 47°21' W 122°33'7 7.1
2014-Oct-27 12:33N 47°28' W 122°31'2 7.4
2014-Oct-27 12:15N 47°30' W 122°30'6 7.9
2014-Oct-27 11:33N 47°35' W 122°28'0 7.3
2014-Oct-27 11:30N 47°36' W 122°28'5 5.4
2014-Oct-27 10:33N 47°40' W 122°24'0 2.3
2014-Oct-27 10:30N 47°40' W 122°24'2 2.6
2014-Oct-27 09:33N 47°39' W 122°21'0 4.1
2014-Oct-27 09:30N 47°39' W 122°20'4 4.4
2014-Oct-27 08:33N 47°40' W 122°15'1 7.9
2014-Oct-27 08:29N 47°41' W 122°15'5 4.9
2014-Oct-27 07:33N 47°45' W 122°15'  
2014-Oct-25 01:33N 47°45' W 122°15'0 0.3
2014-Oct-25 00:33N 47°45' W 122°16'0 3.1
2014-Oct-25 00:31N 47°45' W 122°15'4 4.7
2014-Oct-24 23:33N 47°41' W 122°15'1 6.5
2014-Oct-24 23:21N 47°40' W 122°15'3 4.3
2014-Oct-24 22:33N 47°39' W 122°20'0 5.2
2014-Oct-24 22:32N 47°39' W 122°20'3 2.8
2014-Oct-24 21:33N 47°40' W 122°24'0 1.2
2014-Oct-24 21:31N 47°40' W 122°24'2 2.3
2014-Oct-24 20:33N 47°39' W 122°27'2 6.7
2014-Oct-24 20:15N 47°37' W 122°27'5 6.7
2014-Oct-24 19:33N 47°32' W 122°28'0 7.1
2014-Oct-24 19:31N 47°32' W 122°28'7 7.7
2014-Oct-24 18:33N 47°25' W 122°32'8 8.1
2014-Oct-24 17:33N 47°17' W 122°32'8 8.2
2014-Oct-24 16:33N 47°10' W 122°38'2 1.6
2014-Oct-24 15:32N 47°08' W 122°39'0 0.0
2014-Oct-24 14:33N 47°08' W 122°39'0 0.0
2014-Oct-24 13:33N 47°08' W 122°39'1 0.5
2014-Oct-24 12:33N 47°09' W 122°38'0 0.0
2014-Oct-24 11:33N 47°09' W 122°38'5 5.3
2014-Oct-24 10:33N 47°13' W 122°35'10 9.8
2014-Oct-24 09:33N 47°23' W 122°32'7 7.4
2014-Oct-24 08:33N 47°30' W 122°29'8 7.6
2014-Oct-24 07:33N 47°38' W 122°28'4 3.6
2014-Oct-24 06:33N 47°40' W 122°24'1 3.8
2014-Oct-24 06:22N 47°40' W 122°23'2 5.6
2014-Oct-24 06:02N 47°39' W 122°20'3 5.3
2014-Oct-24 05:33N 47°39' W 122°17'6 6.1
2014-Oct-24 04:32N 47°45' W 122°16'0 0.0
2014-Oct-24 04:32N 47°45' W 122°16'1 0.6
2014-Oct-24 03:33N 47°45' W 122°15'3 4.1
2014-Oct-24 02:51N 47°43' W 122°16'2 6.6
2014-Oct-24 02:33N 47°41' W 122°14'0 6.5
2014-Oct-24 02:31N 47°41' W 122°14'4 4.6
2014-Oct-24 01:33N 47°39' W 122°20'0 4.8
2014-Oct-24 01:32N 47°39' W 122°20'2 2.4
2014-Oct-24 00:33N 47°40' W 122°24'0 0.0
2014-Oct-24 00:32N 47°40' W 122°24'0 0.0
2014-Oct-23 23:33N 47°40' W 122°24'0 0.0
2014-Oct-23 23:32N 47°40' W 122°24'0 0.3
2014-Oct-23 22:33N 47°40' W 122°23'0 0.2
2014-Oct-23 22:31N 47°40' W 122°23'1 1.0
2014-Oct-23 21:33N 47°40' W 122°24'0 3.9
2014-Oct-23 21:31N 47°40' W 122°24'5 5.1
2014-Oct-23 20:33N 47°36' W 122°27'0 7.3
2014-Oct-23 20:31N 47°36' W 122°27'7 7.3
2014-Oct-23 19:33N 47°29' W 122°30'0 7.5
2014-Oct-23 19:31N 47°29' W 122°30'7 7.6
2014-Oct-23 18:33N 47°21' W 122°32'8 8.2
2014-Oct-23 17:33N 47°13' W 122°35'6 5.7
2014-Oct-23 16:33N 47°08' W 122°39'0 0.0
2014-Oct-23 15:29N 47°08' W 122°39'0 0.0
2014-Oct-23 15:20N 47°08' W 122°39'0 0.0
2014-Oct-23 14:31N 47°08' W 122°39'0 0.0
2014-Oct-23 13:33N 47°08' W 122°39'2 2.3
2014-Oct-23 12:33N 47°10' W 122°38'8 8.5
2014-Oct-23 11:33N 47°18' W 122°33'8 7.6
2014-Oct-23 10:33N 47°26' W 122°32'2 7.8
2014-Oct-23 10:19N 47°27' W 122°31'6 7.9
2014-Oct-23 09:33N 47°33' W 122°28'0 7.9
2014-Oct-23 09:30N 47°33' W 122°28'7 7.4
2014-Oct-23 08:33N 47°40' W 122°26'0 7.7
2014-Oct-23 08:30N 47°41' W 122°26'3 3.6
2014-Oct-23 07:33N 47°39' W 122°21'0 6.0
2014-Oct-23 07:30N 47°39' W 122°21'5 5.0
2014-Oct-23 06:33N 47°41' W 122°14'1 7.1
2014-Oct-23 06:29N 47°41' W 122°14'4 7.0
2014-Oct-23 05:54N 47°45' W 122°16'1 1.9
2014-Oct-23 05:33N 47°45' W 122°15'0 0.0
2014-Oct-23 04:33N 47°45' W 122°15'0 0.0
2014-Oct-23 04:29N 47°45' W 122°15'0 0.2
2014-Oct-23 03:33N 47°45' W 122°15'3 3.8
2014-Oct-23 02:39N 47°42' W 122°15'1 6.4
2014-Oct-23 02:33N 47°41' W 122°15'4 4.6
2014-Oct-23 01:44N 47°39' W 122°19'0 2.7
2014-Oct-23 01:33N 47°39' W 122°20'0 4.8
2014-Oct-23 01:28N 47°39' W 122°20'3 3.0
2014-Oct-23 00:33N 47°40' W 122°24'0 0.0
2014-Oct-23 00:29N 47°40' W 122°24'0 0.0
2014-Oct-22 23:33N 47°40' W 122°24'0 0.0
2014-Oct-22 23:28N 47°40' W 122°24'1 1.4
2014-Oct-22 22:33N 47°41' W 122°25'0 0.0
2014-Oct-22 22:33N 47°41' W 122°25'6 5.5
2014-Oct-22 21:33N 47°35' W 122°27'0 0.0
2014-Oct-22 21:33N 47°35' W 122°27'6 6.4
2014-Oct-22 20:33N 47°29' W 122°30'0 5.4
2014-Oct-22 20:33N 47°29' W 122°30'7 6.8
2014-Oct-22 19:33N 47°23' W 122°32'7 6.8
2014-Oct-22 18:33N 47°16' W 122°33'7 7.2
2014-Oct-22 17:33N 47°10' W 122°39'2 1.5
2014-Oct-22 16:32N 47°08' W 122°39'0 0.0
2014-Oct-22 15:33N 47°08' W 122°39'0 0.0
2014-Oct-22 14:33N 47°08' W 122°39'1 1.1
2014-Oct-22 13:28N 47°09' W 122°39'5 5.9
2014-Oct-22 12:33N 47°14' W 122°35'5 8.2
2014-Oct-22 11:57N 47°19' W 122°33'3 8.4
2014-Oct-22 11:33N 47°22' W 122°32'4 7.3
2014-Oct-22 10:57N 47°26' W 122°31'3 7.9
2014-Oct-22 10:33N 47°29' W 122°30'1 7.7
2014-Oct-22 10:22N 47°31' W 122°29'6 7.5
2014-Oct-22 09:33N 47°37' W 122°28'0 6.9
2014-Oct-22 09:32N 47°37' W 122°28'4 4.2
2014-Oct-22 08:33N 47°40' W 122°24'0 0.3
2014-Oct-22 08:32N 47°40' W 122°24'3 3.4
2014-Oct-22 07:33N 47°39' W 122°19'1 6.0
2014-Oct-22 07:26N 47°39' W 122°18'5 5.9
2014-Oct-22 06:33N 47°44' W 122°16'1 1.2
2014-Oct-22 05:33N 47°45' W 122°16'0 1.6
2014-Oct-22 05:16N 47°45' W 122°15'4 5.4
2014-Oct-22 04:33N 47°42' W 122°15'1 6.9
2014-Oct-22 04:26N 47°41' W 122°14'4 4.7
2014-Oct-22 03:33N 47°39' W 122°20'0 5.5
2014-Oct-22 03:31N 47°39' W 122°20'3 3.3
2014-Oct-22 02:33N 47°40' W 122°24'5 4.6
2014-Oct-22 01:33N 47°36' W 122°28'1 7.7
2014-Oct-22 01:29N 47°36' W 122°28'7 7.6
2014-Oct-22 00:33N 47°29' W 122°30'7 7.3
2014-Oct-21 23:33N 47°22' W 122°32'6 5.6
2014-Oct-21 22:33N 47°16' W 122°34'6 5.7
2014-Oct-21 21:33N 47°11' W 122°37'3 2.9
2014-Oct-21 20:29N 47°08' W 122°39'0 0.0
2014-Oct-21 19:27N 47°08' W 122°39'0 0.0
2014-Oct-21 18:32N 47°08' W 122°39'6 6.2
2014-Oct-21 17:33N 47°14' W 122°35'6 6.1
2014-Oct-21 16:33N 47°20' W 122°33'6 6.5
2014-Oct-21 15:33N 47°26' W 122°31'6 6.4
2014-Oct-21 14:33N 47°32' W 122°28'2 6.7
2014-Oct-21 14:16N 47°34' W 122°27'4 5.5
2014-Oct-21 13:33N 47°35' W 122°22'0 7.0
2014-Oct-21 13:31N 47°35' W 122°22'1 0.6
2014-Oct-21 12:33N 47°35' W 122°22'0 1.0
2014-Oct-21 12:30N 47°35' W 122°22'6 6.0
2014-Oct-21 11:33N 47°40' W 122°26'0 7.6
2014-Oct-21 11:30N 47°40' W 122°26'3 2.8
2014-Oct-21 10:33N 47°39' W 122°22'0 4.3
2014-Oct-21 10:30N 47°39' W 122°22'5 4.8
2014-Oct-21 09:33N 47°39' W 122°15'1 8.1
2014-Oct-21 09:29N 47°40' W 122°15'5 5.0
2014-Oct-21 08:33N 47°44' W 122°16'1 0.9
2014-Oct-21 07:49N 47°45' W 122°16'1 2.1
2014-Oct-21 07:31N 47°45' W 122°16'1 1.2
2014-Oct-21 06:49N 47°45' W 122°16'0 0.8
2014-Oct-21 06:32N 47°45' W 122°16'2 4.6
2014-Oct-21 05:59N 47°43' W 122°16'0 6.9
2014-Oct-21 05:55N 47°42' W 122°15'2 6.1
2014-Oct-21 05:31N 47°40' W 122°15'4 4.3
2014-Oct-21 04:33N 47°39' W 122°21'0 3.7
2014-Oct-21 04:30N 47°39' W 122°21'2 2.0
2014-Oct-21 03:34N 47°40' W 122°24'0 1.3
2014-Oct-21 03:29N 47°40' W 122°24'3 3.4
2014-Oct-21 02:34N 47°38' W 122°28'0 7.0
2014-Oct-21 02:29N 47°38' W 122°28'7 7.5
2014-Oct-21 01:33N 47°31' W 122°29'0 7.8
2014-Oct-21 01:30N 47°30' W 122°29'7 7.7
2014-Oct-21 00:33N 47°24' W 122°32'1 7.4
2014-Oct-21 00:29N 47°23' W 122°32'7 7.3
2014-Oct-20 23:33N 47°16' W 122°33'7 6.8
2014-Oct-20 22:33N 47°10' W 122°38'2 6.5
2014-Oct-20 22:12N 47°08' W 122°39'0 0.3
2014-Oct-20 21:33N 47°08' W 122°39'0 0.0
2014-Oct-20 21:05N 47°08' W 122°39'0 0.0
2014-Oct-20 20:33N 47°08' W 122°39'0 0.0
2014-Oct-20 19:33N 47°08' W 122°39'0 0.1
2014-Oct-20 18:33N 47°08' W 122°39'1 0.6
2014-Oct-20 17:33N 47°09' W 122°38'0 0.0
2014-Oct-20 16:33N 47°09' W 122°38'  
Track history (hours):
 
Tides and Currents Weather Stations Pressure Air Temp Water Temp Dewpoint Dewpoint Depression Visibility Wind Speed Wind Dir Waves Ship Positions

Island Breeze

Owner: Island Tug & Barge Co., Seattle, WA. More information available from US FCC via Universal Licensing System and Coast Guard Vessel Documentation Center.

Last reported at 2014-Oct-30 16:18 UTC. Time now 2014-Oct-30 16:51 UTC.
Position N 47°08' W 122°39'.

Length 18 m.

Type: Tug. MMSI: 366800090.

Date/timePositionNaut miles runAvg speedWind from/ knotsBaromVisibWave heightAir tempDewpointWater temp
2014-Oct-30 16:18N 47°08' W 122°39'0 0.1
2014-Oct-30 15:33N 47°08' W 122°39'0 0.0
2014-Oct-30 14:32N 47°08' W 122°39'1 0.6
2014-Oct-30 13:33N 47°09' W 122°38'2 1.5
2014-Oct-30 12:33N 47°10' W 122°38'8 7.7
2014-Oct-30 11:33N 47°17' W 122°33'6 6.4
2014-Oct-30 10:33N 47°23' W 122°32'4 6.7
2014-Oct-30 10:02N 47°27' W 122°31'3 6.6
2014-Oct-30 09:33N 47°30' W 122°30'1 6.7
2014-Oct-30 09:22N 47°31' W 122°29'6 7.2
2014-Oct-30 08:33N 47°36' W 122°28'0 7.0
2014-Oct-30 08:32N 47°37' W 122°28'4 4.4
2014-Oct-30 07:33N 47°40' W 122°24'0 0.3
2014-Oct-30 07:32N 47°40' W 122°24'3 2.7
2014-Oct-30 06:33N 47°39' W 122°20'0 2.4
2014-Oct-30 06:32N 47°39' W 122°20'2 3.1
2014-Oct-30 05:57N 47°39' W 122°18'3 6.8
2014-Oct-30 05:33N 47°40' W 122°15'5 5.0
2014-Oct-30 04:33N 47°45' W 122°15'1 0.7
2014-Oct-30 03:33N 47°45' W 122°16'0 0.1
2014-Oct-30 03:26N 47°45' W 122°16'1 1.5
2014-Oct-30 02:33N 47°44' W 122°16'1 6.6
2014-Oct-30 02:22N 47°42' W 122°16'4 4.8
2014-Oct-30 01:33N 47°39' W 122°18'1 4.2
2014-Oct-30 01:26N 47°39' W 122°19'2 2.3
2014-Oct-30 00:33N 47°39' W 122°22'0 3.0
2014-Oct-30 00:32N 47°39' W 122°22'1 1.3
2014-Oct-29 23:33N 47°40' W 122°24'0 1.2
2014-Oct-29 23:31N 47°40' W 122°24'2 1.6
2014-Oct-29 22:33N 47°40' W 122°26'0 1.7
2014-Oct-29 22:31N 47°40' W 122°26'4 4.6
2014-Oct-29 21:33N 47°36' W 122°26'0 6.1
2014-Oct-29 21:31N 47°36' W 122°26'6 5.7
2014-Oct-29 20:33N 47°31' W 122°29'1 7.4
2014-Oct-29 20:26N 47°30' W 122°30'6 7.1
2014-Oct-29 19:33N 47°24' W 122°32'7 7.1
2014-Oct-29 18:33N 47°17' W 122°33'7 7.2
2014-Oct-29 17:33N 47°10' W 122°38'2 2.4
2014-Oct-29 16:33N 47°08' W 122°39'0 0.0
2014-Oct-29 15:33N 47°08' W 122°39'1 0.6
2014-Oct-29 13:21N 47°09' W 122°39'4 5.7
2014-Oct-29 12:33N 47°13' W 122°35'9 8.5
2014-Oct-29 11:33N 47°22' W 122°33'7 6.7
2014-Oct-29 10:33N 47°28' W 122°31'7 6.8
2014-Oct-29 09:33N 47°35' W 122°28'2 6.9
2014-Oct-29 09:19N 47°36' W 122°28'5 6.5
2014-Oct-29 08:33N 47°41' W 122°28'1 6.3
2014-Oct-29 08:28N 47°41' W 122°27'3 2.9
2014-Oct-29 07:33N 47°40' W 122°24'0 1.2
2014-Oct-29 07:29N 47°40' W 122°24'3 3.2
2014-Oct-29 06:27N 47°39' W 122°19'0 5.1
2014-Oct-29 06:23N 47°39' W 122°18'1 7.8
2014-Oct-29 06:14N 47°39' W 122°17'4 6.2
2014-Oct-29 05:33N 47°43' W 122°16'2 2.5
2014-Oct-29 04:33N 47°45' W 122°15'1 0.8
2014-Oct-29 03:33N 47°45' W 122°16'2 1.8
2014-Oct-29 02:33N 47°43' W 122°16'0 1.4
2014-Oct-29 02:33N 47°43' W 122°16'5 4.6
2014-Oct-29 01:33N 47°39' W 122°18'1 4.2
2014-Oct-29 01:23N 47°39' W 122°19'2 2.6
2014-Oct-29 00:33N 47°40' W 122°23'0 3.1
2014-Oct-29 00:28N 47°40' W 122°23'1 0.5
2014-Oct-28 23:17N 47°40' W 122°24'0 0.0
2014-Oct-28 23:16N 47°40' W 122°24'1 1.5
2014-Oct-28 22:33N 47°41' W 122°25'2 3.9
2014-Oct-28 21:59N 47°40' W 122°28'2 5.3
2014-Oct-28 21:33N 47°38' W 122°29'0 5.1
2014-Oct-28 21:29N 47°38' W 122°28'5 5.5
2014-Oct-28 20:33N 47°32' W 122°28'0 5.4
2014-Oct-28 20:28N 47°32' W 122°29'6 6.9
2014-Oct-28 19:33N 47°26' W 122°31'1 6.4
2014-Oct-28 19:28N 47°25' W 122°32'6 6.8
2014-Oct-28 18:33N 47°19' W 122°33'7 7.4
2014-Oct-28 17:33N 47°12' W 122°36'5 3.7
2014-Oct-28 16:21N 47°08' W 122°39'0 0.1
2014-Oct-28 15:33N 47°08' W 122°39'0 0.0
2014-Oct-28 14:07N 47°08' W 122°39'1 0.9
2014-Oct-28 13:32N 47°09' W 122°38'0 0.0
2014-Oct-28 12:33N 47°09' W 122°38'3 2.6
2014-Oct-28 11:30N 47°11' W 122°37'8 8.7
2014-Oct-28 10:33N 47°19' W 122°34'7 6.6
2014-Oct-28 09:33N 47°26' W 122°32'1 6.5
2014-Oct-28 09:23N 47°27' W 122°31'5 6.3
2014-Oct-28 08:33N 47°32' W 122°29'2 6.7
2014-Oct-28 08:18N 47°33' W 122°28'6 7.4
2014-Oct-28 07:33N 47°39' W 122°28'0 6.5
2014-Oct-28 07:29N 47°39' W 122°28'3 3.3
2014-Oct-28 06:33N 47°40' W 122°24'0 2.1
2014-Oct-28 06:28N 47°40' W 122°23'0 4.8
2014-Oct-28 06:23N 47°40' W 122°23'4 4.9
2014-Oct-28 05:33N 47°39' W 122°17'6 6.3
2014-Oct-28 04:33N 47°45' W 122°16'0 0.0
2014-Oct-28 03:32N 47°45' W 122°16'3 3.0
2014-Oct-28 02:33N 47°42' W 122°15'0 0.0
2014-Oct-28 02:33N 47°42' W 122°15'4 4.1
2014-Oct-28 01:33N 47°39' W 122°19'0 0.0
2014-Oct-28 01:33N 47°39' W 122°19'3 3.0
2014-Oct-28 00:33N 47°40' W 122°24'0 0.0
2014-Oct-28 00:33N 47°40' W 122°24'3 2.5
2014-Oct-27 23:33N 47°39' W 122°27'0 2.3
2014-Oct-27 23:33N 47°39' W 122°27'6 6.7
2014-Oct-27 22:36N 47°32' W 122°28'0 7.8
2014-Oct-27 22:33N 47°32' W 122°28'8 7.5
2014-Oct-27 21:33N 47°25' W 122°32'1 6.8
2014-Oct-27 21:26N 47°24' W 122°32'7 8.1
2014-Oct-27 20:33N 47°17' W 122°33'9 8.0
2014-Oct-27 19:30N 47°09' W 122°39'1 1.3
2014-Oct-27 18:27N 47°08' W 122°39'0 0.0
2014-Oct-27 17:31N 47°08' W 122°39'0 0.0
2014-Oct-27 16:32N 47°08' W 122°39'1 0.5
2014-Oct-27 15:32N 47°09' W 122°38'4 3.9
2014-Oct-27 14:25N 47°13' W 122°36'8 9.7
2014-Oct-27 13:33N 47°21' W 122°33'7 7.1
2014-Oct-27 12:33N 47°28' W 122°31'2 7.4
2014-Oct-27 12:15N 47°30' W 122°30'6 7.9
2014-Oct-27 11:33N 47°35' W 122°28'0 7.3
2014-Oct-27 11:30N 47°36' W 122°28'5 5.4
2014-Oct-27 10:33N 47°40' W 122°24'0 2.3
2014-Oct-27 10:30N 47°40' W 122°24'2 2.6
2014-Oct-27 09:33N 47°39' W 122°21'0 4.1
2014-Oct-27 09:30N 47°39' W 122°20'4 4.4
2014-Oct-27 08:33N 47°40' W 122°15'1 7.9
2014-Oct-27 08:29N 47°41' W 122°15'5 4.9
2014-Oct-27 07:33N 47°45' W 122°15'  
2014-Oct-25 01:33N 47°45' W 122°15'0 0.3
2014-Oct-25 00:33N 47°45' W 122°16'0 3.1
2014-Oct-25 00:31N 47°45' W 122°15'4 4.7
2014-Oct-24 23:33N 47°41' W 122°15'1 6.5
2014-Oct-24 23:21N 47°40' W 122°15'3 4.3
2014-Oct-24 22:33N 47°39' W 122°20'0 5.2
2014-Oct-24 22:32N 47°39' W 122°20'3 2.8
2014-Oct-24 21:33N 47°40' W 122°24'0 1.2
2014-Oct-24 21:31N 47°40' W 122°24'2 2.3
2014-Oct-24 20:33N 47°39' W 122°27'2 6.7
2014-Oct-24 20:15N 47°37' W 122°27'5 6.7
2014-Oct-24 19:33N 47°32' W 122°28'0 7.1
2014-Oct-24 19:31N 47°32' W 122°28'7 7.7
2014-Oct-24 18:33N 47°25' W 122°32'8 8.1
2014-Oct-24 17:33N 47°17' W 122°32'8 8.2
2014-Oct-24 16:33N 47°10' W 122°38'2 1.6
2014-Oct-24 15:32N 47°08' W 122°39'0 0.0
2014-Oct-24 14:33N 47°08' W 122°39'0 0.0
2014-Oct-24 13:33N 47°08' W 122°39'1 0.5
2014-Oct-24 12:33N 47°09' W 122°38'0 0.0
2014-Oct-24 11:33N 47°09' W 122°38'5 5.3
2014-Oct-24 10:33N 47°13' W 122°35'10 9.8
2014-Oct-24 09:33N 47°23' W 122°32'7 7.4
2014-Oct-24 08:33N 47°30' W 122°29'8 7.6
2014-Oct-24 07:33N 47°38' W 122°28'4 3.6
2014-Oct-24 06:33N 47°40' W 122°24'1 3.8
2014-Oct-24 06:22N 47°40' W 122°23'2 5.6
2014-Oct-24 06:02N 47°39' W 122°20'3 5.3
2014-Oct-24 05:33N 47°39' W 122°17'6 6.1
2014-Oct-24 04:32N 47°45' W 122°16'0 0.0
2014-Oct-24 04:32N 47°45' W 122°16'1 0.6
2014-Oct-24 03:33N 47°45' W 122°15'3 4.1
2014-Oct-24 02:51N 47°43' W 122°16'2 6.6
2014-Oct-24 02:33N 47°41' W 122°14'0 6.5
2014-Oct-24 02:31N 47°41' W 122°14'4 4.6
2014-Oct-24 01:33N 47°39' W 122°20'0 4.8
2014-Oct-24 01:32N 47°39' W 122°20'2 2.4
2014-Oct-24 00:33N 47°40' W 122°24'0 0.0
2014-Oct-24 00:32N 47°40' W 122°24'0 0.0
2014-Oct-23 23:33N 47°40' W 122°24'0 0.0
2014-Oct-23 23:32N 47°40' W 122°24'0 0.3
2014-Oct-23 22:33N 47°40' W 122°23'0 0.2
2014-Oct-23 22:31N 47°40' W 122°23'1 1.0
2014-Oct-23 21:33N 47°40' W 122°24'0 3.9
2014-Oct-23 21:31N 47°40' W 122°24'5 5.1
2014-Oct-23 20:33N 47°36' W 122°27'0 7.3
2014-Oct-23 20:31N 47°36' W 122°27'7 7.3
2014-Oct-23 19:33N 47°29' W 122°30'0 7.5
2014-Oct-23 19:31N 47°29' W 122°30'7 7.6
2014-Oct-23 18:33N 47°21' W 122°32'8 8.2
2014-Oct-23 17:33N 47°13' W 122°35'6 5.7
2014-Oct-23 16:33N 47°08' W 122°39'0 0.0
2014-Oct-23 15:29N 47°08' W 122°39'0 0.0
2014-Oct-23 15:20N 47°08' W 122°39'0 0.0
2014-Oct-23 14:31N 47°08' W 122°39'0 0.0
2014-Oct-23 13:33N 47°08' W 122°39'2 2.3
2014-Oct-23 12:33N 47°10' W 122°38'8 8.5
2014-Oct-23 11:33N 47°18' W 122°33'8 7.6
2014-Oct-23 10:33N 47°26' W 122°32'2 7.8
2014-Oct-23 10:19N 47°27' W 122°31'6 7.9
2014-Oct-23 09:33N 47°33' W 122°28'0 7.9
2014-Oct-23 09:30N 47°33' W 122°28'7 7.4
2014-Oct-23 08:33N 47°40' W 122°26'0 7.7
2014-Oct-23 08:30N 47°41' W 122°26'3 3.6
2014-Oct-23 07:33N 47°39' W 122°21'0 6.0
2014-Oct-23 07:30N 47°39' W 122°21'5 5.0
2014-Oct-23 06:33N 47°41' W 122°14'1 7.1
2014-Oct-23 06:29N 47°41' W 122°14'4 7.0
2014-Oct-23 05:54N 47°45' W 122°16'1 1.9
2014-Oct-23 05:33N 47°45' W 122°15'0 0.0
2014-Oct-23 04:33N 47°45' W 122°15'0 0.0
2014-Oct-23 04:29N 47°45' W 122°15'0 0.2
2014-Oct-23 03:33N 47°45' W 122°15'3 3.8
2014-Oct-23 02:39N 47°42' W 122°15'1 6.4
2014-Oct-23 02:33N 47°41' W 122°15'4 4.6
2014-Oct-23 01:44N 47°39' W 122°19'0 2.7
2014-Oct-23 01:33N 47°39' W 122°20'0 4.8
2014-Oct-23 01:28N 47°39' W 122°20'3 3.0
2014-Oct-23 00:33N 47°40' W 122°24'0 0.0
2014-Oct-23 00:29N 47°40' W 122°24'0 0.0
2014-Oct-22 23:33N 47°40' W 122°24'0 0.0
2014-Oct-22 23:28N 47°40' W 122°24'1 1.4
2014-Oct-22 22:33N 47°41' W 122°25'0 0.0
2014-Oct-22 22:33N 47°41' W 122°25'6 5.5
2014-Oct-22 21:33N 47°35' W 122°27'0 0.0
2014-Oct-22 21:33N 47°35' W 122°27'6 6.4
2014-Oct-22 20:33N 47°29' W 122°30'0 5.4
2014-Oct-22 20:33N 47°29' W 122°30'7 6.8
2014-Oct-22 19:33N 47°23' W 122°32'7 6.8
2014-Oct-22 18:33N 47°16' W 122°33'7 7.2
2014-Oct-22 17:33N 47°10' W 122°39'2 1.5
2014-Oct-22 16:32N 47°08' W 122°39'0 0.0
2014-Oct-22 15:33N 47°08' W 122°39'0 0.0
2014-Oct-22 14:33N 47°08' W 122°39'1 1.1
2014-Oct-22 13:28N 47°09' W 122°39'5 5.9
2014-Oct-22 12:33N 47°14' W 122°35'5 8.2
2014-Oct-22 11:57N 47°19' W 122°33'3 8.4
2014-Oct-22 11:33N 47°22' W 122°32'4 7.3
2014-Oct-22 10:57N 47°26' W 122°31'3 7.9
2014-Oct-22 10:33N 47°29' W 122°30'1 7.7
2014-Oct-22 10:22N 47°31' W 122°29'6 7.5
2014-Oct-22 09:33N 47°37' W 122°28'0 6.9
2014-Oct-22 09:32N 47°37' W 122°28'4 4.2
2014-Oct-22 08:33N 47°40' W 122°24'0 0.3
2014-Oct-22 08:32N 47°40' W 122°24'3 3.4
2014-Oct-22 07:33N 47°39' W 122°19'1 6.0
2014-Oct-22 07:26N 47°39' W 122°18'5 5.9
2014-Oct-22 06:33N 47°44' W 122°16'1 1.2
2014-Oct-22 05:33N 47°45' W 122°16'0 1.6
2014-Oct-22 05:16N 47°45' W 122°15'4 5.4
2014-Oct-22 04:33N 47°42' W 122°15'1 6.9
2014-Oct-22 04:26N 47°41' W 122°14'4 4.7
2014-Oct-22 03:33N 47°39' W 122°20'0 5.5
2014-Oct-22 03:31N 47°39' W 122°20'3 3.3
2014-Oct-22 02:33N 47°40' W 122°24'5 4.6
2014-Oct-22 01:33N 47°36' W 122°28'1 7.7
2014-Oct-22 01:29N 47°36' W 122°28'7 7.6
2014-Oct-22 00:33N 47°29' W 122°30'7 7.3
2014-Oct-21 23:33N 47°22' W 122°32'6 5.6
2014-Oct-21 22:33N 47°16' W 122°34'6 5.7
2014-Oct-21 21:33N 47°11' W 122°37'3 2.9
2014-Oct-21 20:29N 47°08' W 122°39'0 0.0
2014-Oct-21 19:27N 47°08' W 122°39'0 0.0
2014-Oct-21 18:32N 47°08' W 122°39'6 6.2
2014-Oct-21 17:33N 47°14' W 122°35'6 6.1
2014-Oct-21 16:33N 47°20' W 122°33'6 6.5
2014-Oct-21 15:33N 47°26' W 122°31'6 6.4
2014-Oct-21 14:33N 47°32' W 122°28'2 6.7
2014-Oct-21 14:16N 47°34' W 122°27'4 5.5
2014-Oct-21 13:33N 47°35' W 122°22'0 7.0
2014-Oct-21 13:31N 47°35' W 122°22'1 0.6
2014-Oct-21 12:33N 47°35' W 122°22'0 1.0
2014-Oct-21 12:30N 47°35' W 122°22'6 6.0
2014-Oct-21 11:33N 47°40' W 122°26'0 7.6
2014-Oct-21 11:30N 47°40' W 122°26'3 2.8
2014-Oct-21 10:33N 47°39' W 122°22'0 4.3
2014-Oct-21 10:30N 47°39' W 122°22'5 4.8
2014-Oct-21 09:33N 47°39' W 122°15'1 8.1
2014-Oct-21 09:29N 47°40' W 122°15'5 5.0
2014-Oct-21 08:33N 47°44' W 122°16'1 0.9
2014-Oct-21 07:49N 47°45' W 122°16'1 2.1
2014-Oct-21 07:31N 47°45' W 122°16'1 1.2
2014-Oct-21 06:49N 47°45' W 122°16'0 0.8
2014-Oct-21 06:32N 47°45' W 122°16'2 4.6
2014-Oct-21 05:59N 47°43' W 122°16'0 6.9
2014-Oct-21 05:55N 47°42' W 122°15'2 6.1
2014-Oct-21 05:31N 47°40' W 122°15'4 4.3
2014-Oct-21 04:33N 47°39' W 122°21'0 3.7
2014-Oct-21 04:30N 47°39' W 122°21'2 2.0
2014-Oct-21 03:34N 47°40' W 122°24'0 1.3
2014-Oct-21 03:29N 47°40' W 122°24'3 3.4
2014-Oct-21 02:34N 47°38' W 122°28'0 7.0
2014-Oct-21 02:29N 47°38' W 122°28'7 7.5
2014-Oct-21 01:33N 47°31' W 122°29'0 7.8
2014-Oct-21 01:30N 47°30' W 122°29'7 7.7
2014-Oct-21 00:33N 47°24' W 122°32'1 7.4
2014-Oct-21 00:29N 47°23' W 122°32'7 7.3
2014-Oct-20 23:33N 47°16' W 122°33'7 6.8
2014-Oct-20 22:33N 47°10' W 122°38'2 6.5
2014-Oct-20 22:12N 47°08' W 122°39'0 0.3
2014-Oct-20 21:33N 47°08' W 122°39'0 0.0
2014-Oct-20 21:05N 47°08' W 122°39'0 0.0
2014-Oct-20 20:33N 47°08' W 122°39'0 0.0
2014-Oct-20 19:33N 47°08' W 122°39'0 0.1
2014-Oct-20 18:33N 47°08' W 122°39'1 0.6
2014-Oct-20 17:33N 47°09' W 122°38'0 0.0
2014-Oct-20 16:33N 47°09' W 122°38'  

Dump ship's entire track history